sensor_id;sensor_type;location;lat;lon;timestamp;pressure;altitude;pressure_sealevel;temperature;humidity
41632;BME280;37452;51.938;4.624;2023-04-29T00:01:39;77322.31;;;-142.75;100.00
41632;BME280;37452;51.938;4.624;2023-04-29T00:04:04;77308.53;;;-142.75;100.00
41632;BME280;37452;51.938;4.624;2023-04-29T00:06:33;77314.44;;;-142.75;100.00
41632;BME280;37452;51.938;4.624;2023-04-29T00:08:58;77306.56;;;-142.75;100.00
41632;BME280;37452;51.938;4.624;2023-04-29T00:11:23;77300.66;;;-142.75;100.00
41632;BME280;37452;51.938;4.624;2023-04-29T00:13:48;77302.63;;;-142.75;100.00
41632;BME280;37452;51.938;4.624;2023-04-29T00:16:14;77304.59;;;-142.75;100.00
41632;BME280;37452;51.938;4.624;2023-04-29T00:18:39;77310.50;;;-142.75;100.00
41632;BME280;37452;51.938;4.624;2023-04-29T00:21:07;77318.38;;;-142.75;100.00
41632;BME280;37452;51.938;4.624;2023-04-29T00:23:32;77322.31;;;-142.75;100.00
41632;BME280;37452;51.938;4.624;2023-04-29T00:25:58;77336.09;;;-142.75;100.00
41632;BME280;37452;51.938;4.624;2023-04-29T00:28:23;77326.25;;;-142.75;100.00
41632;BME280;37452;51.938;4.624;2023-04-29T00:30:49;77338.06;;;-142.75;100.00
41632;BME280;37452;51.938;4.624;2023-04-29T00:33:14;77349.88;;;-142.75;100.00
41632;BME280;37452;51.938;4.624;2023-04-29T00:35:39;77342.00;;;-142.75;100.00
41632;BME280;37452;51.938;4.624;2023-04-29T00:38:04;77357.75;;;-142.75;100.00
41632;BME280;37452;51.938;4.624;2023-04-29T00:40:30;77369.56;;;-142.75;100.00
41632;BME280;37452;51.938;4.624;2023-04-29T00:42:55;77353.81;;;-142.75;100.00
41632;BME280;37452;51.938;4.624;2023-04-29T00:45:21;77371.53;;;-142.75;100.00
41632;BME280;37452;51.938;4.624;2023-04-29T00:47:46;77385.31;;;-142.75;100.00
41632;BME280;37452;51.938;4.624;2023-04-29T00:50:12;77389.25;;;-142.75;100.00
41632;BME280;37452;51.938;4.624;2023-04-29T00:52:37;77391.22;;;-142.75;100.00
41632;BME280;37452;51.938;4.624;2023-04-29T00:55:04;77387.28;;;-142.75;100.00
41632;BME280;37452;51.938;4.624;2023-04-29T00:57:29;77385.31;;;-142.75;100.00
41632;BME280;37452;51.938;4.624;2023-04-29T00:59:55;77401.06;;;-142.75;100.00
41632;BME280;37452;51.938;4.624;2023-04-29T01:02:21;77387.28;;;-142.75;100.00
41632;BME280;37452;51.938;4.624;2023-04-29T01:04:47;77405.00;;;-142.75;100.00
41632;BME280;37452;51.938;4.624;2023-04-29T01:12:28;77416.81;;;-142.75;100.00
41632;BME280;37452;51.938;4.624;2023-04-29T01:15:04;77412.88;;;-142.75;100.00
41632;BME280;37452;51.938;4.624;2023-04-29T01:17:34;77418.78;;;-142.75;100.00
41632;BME280;37452;51.938;4.624;2023-04-29T01:20:01;77416.81;;;-142.75;100.00
41632;BME280;37452;51.938;4.624;2023-04-29T01:22:28;77430.59;;;-142.75;100.00
41632;BME280;37452;51.938;4.624;2023-04-29T01:24:53;77422.72;;;-142.75;100.00
41632;BME280;37452;51.938;4.624;2023-04-29T01:33:13;77424.69;;;-142.75;100.00
41632;BME280;37452;51.938;4.624;2023-04-29T01:37:48;77410.91;;;-142.75;100.00
41632;BME280;37452;51.938;4.624;2023-04-29T01:40:21;77405.00;;;-142.75;100.00
41632;BME280;37452;51.938;4.624;2023-04-29T01:42:59;77416.81;;;-142.75;100.00
41632;BME280;37452;51.938;4.624;2023-04-29T01:45:25;77416.81;;;-142.75;100.00
41632;BME280;37452;51.938;4.624;2023-04-29T01:47:51;77426.66;;;-142.75;100.00
41632;BME280;37452;51.938;4.624;2023-04-29T01:50:17;77418.78;;;-142.75;100.00
41632;BME280;37452;51.938;4.624;2023-04-29T01:52:42;77410.91;;;-142.75;100.00
41632;BME280;37452;51.938;4.624;2023-04-29T01:55:07;77428.63;;;-142.75;100.00
41632;BME280;37452;51.938;4.624;2023-04-29T01:57:33;77428.63;;;-142.75;100.00
41632;BME280;37452;51.938;4.624;2023-04-29T01:59:58;77418.78;;;-142.75;100.00
41632;BME280;37452;51.938;4.624;2023-04-29T02:02:24;77416.81;;;-142.75;100.00
41632;BME280;37452;51.938;4.624;2023-04-29T02:04:49;77424.69;;;-142.75;100.00
41632;BME280;37452;51.938;4.624;2023-04-29T02:07:15;77432.56;;;-142.75;100.00
41632;BME280;37452;51.938;4.624;2023-04-29T02:09:40;77424.69;;;-142.75;100.00
41632;BME280;37452;51.938;4.624;2023-04-29T02:12:05;77428.63;;;-142.75;100.00
41632;BME280;37452;51.938;4.624;2023-04-29T02:14:31;77432.56;;;-142.75;100.00
41632;BME280;37452;51.938;4.624;2023-04-29T02:16:58;77420.75;;;-142.75;100.00
41632;BME280;37452;51.938;4.624;2023-04-29T02:19:23;77420.75;;;-142.75;100.00
41632;BME280;37452;51.938;4.624;2023-04-29T02:21:48;77416.81;;;-142.75;100.00
41632;BME280;37452;51.938;4.624;2023-04-29T02:24:13;77434.53;;;-142.75;100.00
41632;BME280;37452;51.938;4.624;2023-04-29T02:26:39;77424.69;;;-142.75;100.00
41632;BME280;37452;51.938;4.624;2023-04-29T02:29:07;77432.56;;;-142.75;100.00
41632;BME280;37452;51.938;4.624;2023-04-29T02:31:32;77450.28;;;-142.75;100.00
41632;BME280;37452;51.938;4.624;2023-04-29T02:33:57;77440.44;;;-142.75;100.00
41632;BME280;37452;51.938;4.624;2023-04-29T02:36:22;77444.38;;;-142.75;100.00
41632;BME280;37452;51.938;4.624;2023-04-29T02:38:48;77462.13;;;-142.75;100.00
41632;BME280;37452;51.938;4.624;2023-04-29T02:41:17;77462.13;;;-142.75;100.00
41632;BME280;37452;51.938;4.624;2023-04-29T02:43:42;77454.25;;;-142.75;100.00
41632;BME280;37452;51.938;4.624;2023-04-29T02:46:08;77446.34;;;-142.75;100.00
41632;BME280;37452;51.938;4.624;2023-04-29T02:48:34;77456.22;;;-142.75;100.00
41632;BME280;37452;51.938;4.624;2023-04-29T02:51:02;77446.34;;;-142.75;100.00
41632;BME280;37452;51.938;4.624;2023-04-29T02:53:27;77460.13;;;-142.75;100.00
41632;BME280;37452;51.938;4.624;2023-04-29T02:55:52;77456.22;;;-142.75;100.00
41632;BME280;37452;51.938;4.624;2023-04-29T02:58:18;77460.13;;;-142.75;100.00
41632;BME280;37452;51.938;4.624;2023-04-29T03:00:43;77471.97;;;-142.75;100.00
41632;BME280;37452;51.938;4.624;2023-04-29T03:03:08;77464.09;;;-142.75;100.00
41632;BME280;37452;51.938;4.624;2023-04-29T03:05:33;77468.03;;;-142.75;100.00
41632;BME280;37452;51.938;4.624;2023-04-29T03:07:59;77466.03;;;-142.75;100.00
41632;BME280;37452;51.938;4.624;2023-04-29T03:10:24;77468.03;;;-142.75;100.00
41632;BME280;37452;51.938;4.624;2023-04-29T03:12:50;77471.97;;;-142.75;100.00
41632;BME280;37452;51.938;4.624;2023-04-29T03:15:15;77470.00;;;-142.75;100.00
41632;BME280;37452;51.938;4.624;2023-04-29T03:17:41;77468.03;;;-142.75;100.00
41632;BME280;37452;51.938;4.624;2023-04-29T03:20:06;77456.22;;;-142.75;100.00
41632;BME280;37452;51.938;4.624;2023-04-29T03:22:31;77464.09;;;-142.75;100.00
41632;BME280;37452;51.938;4.624;2023-04-29T03:24:57;77485.75;;;-142.75;100.00
41632;BME280;37452;51.938;4.624;2023-04-29T03:27:22;77481.81;;;-142.75;100.00
41632;BME280;37452;51.938;4.624;2023-04-29T03:29:47;77473.94;;;-142.75;100.00
41632;BME280;37452;51.938;4.624;2023-04-29T03:32:13;77471.97;;;-142.75;100.00
41632;BME280;37452;51.938;4.624;2023-04-29T03:34:38;77479.84;;;-142.75;100.00
41632;BME280;37452;51.938;4.624;2023-04-29T03:37:03;77475.91;;;-142.75;100.00
41632;BME280;37452;51.938;4.624;2023-04-29T03:39:28;77483.78;;;-142.75;100.00
41632;BME280;37452;51.938;4.624;2023-04-29T03:41:56;77473.94;;;-142.75;100.00
41632;BME280;37452;51.938;4.624;2023-04-29T03:44:21;77479.84;;;-142.75;100.00
41632;BME280;37452;51.938;4.624;2023-04-29T03:46:47;77491.66;;;-142.75;100.00
41632;BME280;37452;51.938;4.624;2023-04-29T03:49:12;77475.91;;;-142.75;100.00
41632;BME280;37452;51.938;4.624;2023-04-29T03:51:38;77483.78;;;-142.75;100.00
41632;BME280;37452;51.938;4.624;2023-04-29T03:54:04;77483.78;;;-142.75;100.00
41632;BME280;37452;51.938;4.624;2023-04-29T03:56:29;77485.75;;;-142.75;100.00
41632;BME280;37452;51.938;4.624;2023-04-29T03:58:54;77493.63;;;-142.75;100.00
41632;BME280;37452;51.938;4.624;2023-04-29T04:01:19;77483.78;;;-142.75;100.00
41632;BME280;37452;51.938;4.624;2023-04-29T04:03:45;77475.91;;;-142.75;100.00
41632;BME280;37452;51.938;4.624;2023-04-29T04:06:10;77475.91;;;-142.75;100.00
41632;BME280;37452;51.938;4.624;2023-04-29T04:08:36;77483.78;;;-142.75;100.00
41632;BME280;37452;51.938;4.624;2023-04-29T04:11:01;77479.84;;;-142.75;100.00
41632;BME280;37452;51.938;4.624;2023-04-29T04:13:29;77489.69;;;-142.75;100.00
41632;BME280;37452;51.938;4.624;2023-04-29T04:15:54;77483.78;;;-142.75;100.00
41632;BME280;37452;51.938;4.624;2023-04-29T04:18:20;77483.78;;;-142.75;100.00
41632;BME280;37452;51.938;4.624;2023-04-29T04:20:45;77487.72;;;-142.75;100.00
41632;BME280;37452;51.938;4.624;2023-04-29T04:23:11;77497.56;;;-142.75;100.00
41632;BME280;37452;51.938;4.624;2023-04-29T04:25:36;77491.66;;;-142.75;100.00
41632;BME280;37452;51.938;4.624;2023-04-29T04:28:02;77483.78;;;-142.75;100.00
41632;BME280;37452;51.938;4.624;2023-04-29T04:30:27;77487.72;;;-142.75;100.00
41632;BME280;37452;51.938;4.624;2023-04-29T04:32:52;77495.59;;;-142.75;100.00
41632;BME280;37452;51.938;4.624;2023-04-29T04:35:17;77499.53;;;-142.75;100.00
41632;BME280;37452;51.938;4.624;2023-04-29T04:37:42;77503.47;;;-142.75;100.00
41632;BME280;37452;51.938;4.624;2023-04-29T04:40:08;77503.47;;;-142.75;100.00
41632;BME280;37452;51.938;4.624;2023-04-29T04:42:35;77499.53;;;-142.75;100.00
41632;BME280;37452;51.938;4.624;2023-04-29T04:45:00;77521.19;;;-142.75;100.00
41632;BME280;37452;51.938;4.624;2023-04-29T04:47:25;77507.41;;;-142.75;100.00
41632;BME280;37452;51.938;4.624;2023-04-29T04:49:51;77515.28;;;-142.75;100.00
41632;BME280;37452;51.938;4.624;2023-04-29T04:52:19;77531.03;;;-142.75;100.00
41632;BME280;37452;51.938;4.624;2023-04-29T04:54:45;77519.22;;;-142.75;100.00
41632;BME280;37452;51.938;4.624;2023-04-29T04:57:11;77515.28;;;-142.75;100.00
41632;BME280;37452;51.938;4.624;2023-04-29T04:59:36;77523.16;;;-142.75;100.00
41632;BME280;37452;51.938;4.624;2023-04-29T05:02:01;77523.16;;;-142.75;100.00
41632;BME280;37452;51.938;4.624;2023-04-29T05:04:26;77519.22;;;-142.75;100.00
41632;BME280;37452;51.938;4.624;2023-04-29T05:06:51;77523.16;;;-142.75;100.00
41632;BME280;37452;51.938;4.624;2023-04-29T05:09:17;77521.19;;;-142.75;100.00
41632;BME280;37452;51.938;4.624;2023-04-29T05:11:42;77531.03;;;-142.75;100.00
41632;BME280;37452;51.938;4.624;2023-04-29T05:14:07;77523.16;;;-142.75;100.00
41632;BME280;37452;51.938;4.624;2023-04-29T05:16:33;77517.25;;;-142.75;100.00
41632;BME280;37452;51.938;4.624;2023-04-29T05:18:58;77515.28;;;-142.75;100.00
41632;BME280;37452;51.938;4.624;2023-04-29T05:21:23;77509.38;;;-142.75;100.00
41632;BME280;37452;51.938;4.624;2023-04-29T05:23:48;77517.25;;;-142.75;100.00
41632;BME280;37452;51.938;4.624;2023-04-29T05:26:13;77507.41;;;-142.75;100.00
41632;BME280;37452;51.938;4.624;2023-04-29T05:28:39;77525.13;;;-142.75;100.00
41632;BME280;37452;51.938;4.624;2023-04-29T05:31:04;77509.38;;;-142.75;100.00
41632;BME280;37452;51.938;4.624;2023-04-29T05:33:30;77509.38;;;-142.75;100.00
41632;BME280;37452;51.938;4.624;2023-04-29T05:35:55;77507.41;;;-142.75;100.00
41632;BME280;37452;51.938;4.624;2023-04-29T05:38:20;77521.19;;;-142.75;100.00
41632;BME280;37452;51.938;4.624;2023-04-29T05:40:45;77515.28;;;-142.75;100.00
41632;BME280;37452;51.938;4.624;2023-04-29T05:43:13;77511.34;;;-142.75;100.00
41632;BME280;37452;51.938;4.624;2023-04-29T05:45:39;77503.47;;;-142.75;100.00
41632;BME280;37452;51.938;4.624;2023-04-29T05:48:04;77511.34;;;-142.75;100.00
41632;BME280;37452;51.938;4.624;2023-04-29T05:50:29;77509.38;;;-142.75;100.00
41632;BME280;37452;51.938;4.624;2023-04-29T05:52:55;77523.16;;;-142.75;100.00
41632;BME280;37452;51.938;4.624;2023-04-29T05:55:20;77519.22;;;-142.75;100.00
41632;BME280;37452;51.938;4.624;2023-04-29T05:57:45;77513.31;;;-142.75;100.00
41632;BME280;37452;51.938;4.624;2023-04-29T06:00:11;77511.34;;;-142.75;100.00
41632;BME280;37452;51.938;4.624;2023-04-29T06:02:36;77525.13;;;-142.75;100.00
41632;BME280;37452;51.938;4.624;2023-04-29T06:05:03;77511.34;;;-142.75;100.00
41632;BME280;37452;51.938;4.624;2023-04-29T06:07:29;77503.47;;;-142.75;100.00
41632;BME280;37452;51.938;4.624;2023-04-29T06:09:54;77517.25;;;-142.75;100.00
41632;BME280;37452;51.938;4.624;2023-04-29T06:12:20;77511.34;;;-142.75;100.00
41632;BME280;37452;51.938;4.624;2023-04-29T06:14:45;77511.34;;;-142.75;100.00
41632;BME280;37452;51.938;4.624;2023-04-29T06:17:10;77511.34;;;-142.75;100.00
41632;BME280;37452;51.938;4.624;2023-04-29T06:19:36;77519.22;;;-142.75;100.00
41632;BME280;37452;51.938;4.624;2023-04-29T06:22:02;77515.28;;;-142.75;100.00
41632;BME280;37452;51.938;4.624;2023-04-29T06:24:27;77538.91;;;-142.75;100.00
41632;BME280;37452;51.938;4.624;2023-04-29T06:26:52;77536.94;;;-142.75;100.00
41632;BME280;37452;51.938;4.624;2023-04-29T06:29:18;77515.28;;;-142.75;100.00
41632;BME280;37452;51.938;4.624;2023-04-29T06:31:43;77513.31;;;-142.75;100.00
41632;BME280;37452;51.938;4.624;2023-04-29T06:34:08;77515.28;;;-142.75;100.00
41632;BME280;37452;51.938;4.624;2023-04-29T06:36:33;77515.28;;;-142.75;100.00
41632;BME280;37452;51.938;4.624;2023-04-29T06:38:59;77517.25;;;-142.75;100.00
41632;BME280;37452;51.938;4.624;2023-04-29T06:41:24;77534.97;;;-142.75;100.00
41632;BME280;37452;51.938;4.624;2023-04-29T06:43:50;77515.28;;;-142.75;100.00
41632;BME280;37452;51.938;4.624;2023-04-29T06:46:15;77507.41;;;-142.75;100.00
41632;BME280;37452;51.938;4.624;2023-04-29T06:48:41;77497.56;;;-142.75;100.00
41632;BME280;37452;51.938;4.624;2023-04-29T06:51:06;77505.44;;;-142.75;100.00
41632;BME280;37452;51.938;4.624;2023-04-29T06:53:32;77511.34;;;-142.75;100.00
41632;BME280;37452;51.938;4.624;2023-04-29T06:55:57;77523.16;;;-142.75;100.00
41632;BME280;37452;51.938;4.624;2023-04-29T06:58:22;77511.34;;;-142.75;100.00
41632;BME280;37452;51.938;4.624;2023-04-29T07:00:49;77491.66;;;-142.75;100.00
41632;BME280;37452;51.938;4.624;2023-04-29T07:03:14;77491.66;;;-142.75;100.00
41632;BME280;37452;51.938;4.624;2023-04-29T07:05:40;77471.97;;;-142.75;100.00
41632;BME280;37452;51.938;4.624;2023-04-29T07:08:09;77456.22;;;-142.75;100.00
41632;BME280;37452;51.938;4.624;2023-04-29T07:10:35;77471.97;;;-142.75;100.00
41632;BME280;37452;51.938;4.624;2023-04-29T07:13:00;77487.72;;;-142.75;100.00
41632;BME280;37452;51.938;4.624;2023-04-29T07:15:26;77460.13;;;-142.75;100.00
41632;BME280;37452;51.938;4.624;2023-04-29T07:17:51;77440.44;;;-142.75;100.00
41632;BME280;37452;51.938;4.624;2023-04-29T07:20:16;77444.38;;;-142.75;100.00
41632;BME280;37452;51.938;4.624;2023-04-29T07:22:42;77491.66;;;-142.75;100.00
41632;BME280;37452;51.938;4.624;2023-04-29T07:25:07;77456.22;;;-142.75;100.00
41632;BME280;37452;51.938;4.624;2023-04-29T07:27:33;77452.25;;;-142.75;100.00
41632;BME280;37452;51.938;4.624;2023-04-29T07:30:01;77416.81;;;-142.75;100.00
41632;BME280;37452;51.938;4.624;2023-04-29T07:32:26;77353.81;;;-142.75;100.00
41632;BME280;37452;51.938;4.624;2023-04-29T07:34:52;77326.25;;;-142.75;100.00
41632;BME280;37452;51.938;4.624;2023-04-29T07:37:17;77332.16;;;-142.75;100.00
41632;BME280;37452;51.938;4.624;2023-04-29T07:39:42;77308.53;;;-142.75;100.00
41632;BME280;37452;51.938;4.624;2023-04-29T07:42:08;77288.84;;;-142.75;100.00
41632;BME280;37452;51.938;4.624;2023-04-29T07:44:36;77310.50;;;-142.75;100.00
41632;BME280;37452;51.938;4.624;2023-04-29T07:47:01;77282.94;;;-142.75;100.00
41632;BME280;37452;51.938;4.624;2023-04-29T07:49:26;77267.19;;;-142.75;100.00
41632;BME280;37452;51.938;4.624;2023-04-29T07:51:52;77174.66;;;-142.75;100.00
41632;BME280;37452;51.938;4.624;2023-04-29T07:54:17;77184.50;;;-142.75;100.00
41632;BME280;37452;51.938;4.624;2023-04-29T07:56:43;77192.38;;;-142.75;100.00
41632;BME280;37452;51.938;4.624;2023-04-29T07:59:08;77182.53;;;-142.75;100.00
41632;BME280;37452;51.938;4.624;2023-04-29T08:01:34;77156.94;;;-142.75;100.00
41632;BME280;37452;51.938;4.624;2023-04-29T08:03:59;77147.09;;;-142.75;100.00
41632;BME280;37452;51.938;4.624;2023-04-29T08:06:24;77117.56;;;-142.75;100.00
41632;BME280;37452;51.938;4.624;2023-04-29T08:08:49;77123.47;;;-142.75;100.00
41632;BME280;37452;51.938;4.624;2023-04-29T08:11:19;77137.25;;;-142.75;100.00
41632;BME280;37452;51.938;4.624;2023-04-29T08:13:44;77178.59;;;-142.75;100.00
41632;BME280;37452;51.938;4.624;2023-04-29T08:16:10;77194.34;;;-142.75;100.00
41632;BME280;37452;51.938;4.624;2023-04-29T08:18:35;77184.50;;;-142.75;100.00
41632;BME280;37452;51.938;4.624;2023-04-29T08:21:00;77200.25;;;-142.75;100.00
41632;BME280;37452;51.938;4.624;2023-04-29T08:23:26;77156.94;;;-142.75;100.00
41632;BME280;37452;51.938;4.624;2023-04-29T08:25:51;77125.44;;;-142.75;100.00
41632;BME280;37452;51.938;4.624;2023-04-29T08:28:17;77123.47;;;-142.75;100.00
41632;BME280;37452;51.938;4.624;2023-04-29T08:30:43;77145.13;;;-142.75;100.00
41632;BME280;37452;51.938;4.624;2023-04-29T08:33:08;77184.50;;;-142.75;100.00
41632;BME280;37452;51.938;4.624;2023-04-29T08:35:34;77121.50;;;-142.75;100.00
41632;BME280;37452;51.938;4.624;2023-04-29T08:38:01;77064.41;;;-142.75;100.00
41632;BME280;37452;51.938;4.624;2023-04-29T08:40:26;77109.69;;;-142.75;100.00
41632;BME280;37452;51.938;4.624;2023-04-29T08:42:52;77105.75;;;-142.75;100.00
41632;BME280;37452;51.938;4.624;2023-04-29T08:45:18;77149.06;;;-142.75;100.00
41632;BME280;37452;51.938;4.624;2023-04-29T08:47:44;77198.28;;;-142.75;100.00
41632;BME280;37452;51.938;4.624;2023-04-29T08:50:09;77184.50;;;-142.75;100.00
41632;BME280;37452;51.938;4.624;2023-04-29T08:52:34;77166.78;;;-142.75;100.00
41632;BME280;37452;51.938;4.624;2023-04-29T08:55:00;77113.63;;;-142.75;100.00
41632;BME280;37452;51.938;4.624;2023-04-29T08:57:27;77064.41;;;-142.75;100.00
41632;BME280;37452;51.938;4.624;2023-04-29T08:59:53;77086.06;;;-142.75;100.00
41632;BME280;37452;51.938;4.624;2023-04-29T09:02:18;77017.16;;;-142.75;100.00
41632;BME280;37452;51.938;4.624;2023-04-29T09:07:10;76904.94;;;-142.75;100.00
41632;BME280;37452;51.938;4.624;2023-04-29T09:09:36;76883.28;;;-142.75;100.00
41632;BME280;37452;51.938;4.624;2023-04-29T09:12:03;76853.75;;;-142.75;97.39
41632;BME280;37452;51.938;4.624;2023-04-29T09:14:29;76859.66;;;-142.75;94.50
41632;BME280;37452;51.938;4.624;2023-04-29T09:16:57;76800.63;;;-142.75;97.82
41632;BME280;37452;51.938;4.624;2023-04-29T09:19:33;76830.13;;;-142.75;94.68
41632;BME280;37452;51.938;4.624;2023-04-29T09:21:59;76802.56;;;-142.75;94.77
41632;BME280;37452;51.938;4.624;2023-04-29T09:24:28;76759.28;;;-142.75;93.39
41632;BME280;37452;51.938;4.624;2023-04-29T09:26:53;76757.31;;;-142.75;91.93
41632;BME280;37452;51.938;4.624;2023-04-29T09:29:19;76804.53;;;-142.75;88.57
41632;BME280;37452;51.938;4.624;2023-04-29T09:31:44;76912.81;;;-142.75;89.24
41632;BME280;37452;51.938;4.624;2023-04-29T09:34:10;76926.59;;;-142.75;94.12
41632;BME280;37452;51.938;4.624;2023-04-29T09:36:43;76841.94;;;-142.75;93.93
41632;BME280;37452;51.938;4.624;2023-04-29T09:39:15;76861.63;;;-142.75;89.38
41632;BME280;37452;51.938;4.624;2023-04-29T09:44:19;76908.88;;;-142.75;94.23
41632;BME280;37452;51.938;4.624;2023-04-29T09:49:27;76814.38;;;-142.75;91.91
41632;BME280;37452;51.938;4.624;2023-04-29T09:54:22;76901.00;;;-142.75;89.04
41632;BME280;37452;51.938;4.624;2023-04-29T09:56:48;76944.31;;;-142.75;90.72
41632;BME280;37452;51.938;4.624;2023-04-29T09:59:13;76954.16;;;-142.75;93.94
41632;BME280;37452;51.938;4.624;2023-04-29T10:01:38;76989.59;;;-142.75;97.58
41632;BME280;37452;51.938;4.624;2023-04-29T10:04:04;76924.63;;;-142.75;96.98
41632;BME280;37452;51.938;4.624;2023-04-29T10:06:32;76857.69;;;-142.75;97.00
41632;BME280;37452;51.938;4.624;2023-04-29T10:08:58;76847.84;;;-142.75;92.21
41632;BME280;37452;51.938;4.624;2023-04-29T10:11:23;76906.91;;;-142.75;89.99
41632;BME280;37452;51.938;4.624;2023-04-29T10:13:49;76916.75;;;-142.75;95.12
41632;BME280;37452;51.938;4.624;2023-04-29T10:18:47;76824.22;;;-142.75;90.61
41632;BME280;37452;51.938;4.624;2023-04-29T10:21:13;76806.50;;;-142.75;89.92
41632;BME280;37452;51.938;4.624;2023-04-29T10:23:38;76778.97;;;-142.75;85.38
41632;BME280;37452;51.938;4.624;2023-04-29T10:26:03;76767.16;;;-142.75;83.18
41632;BME280;37452;51.938;4.624;2023-04-29T10:28:30;76778.97;;;-142.75;87.93
41632;BME280;37452;51.938;4.624;2023-04-29T10:30:56;76830.13;;;-142.75;86.92
41632;BME280;37452;51.938;4.624;2023-04-29T10:33:21;76845.88;;;-142.75;86.91
41632;BME280;37452;51.938;4.624;2023-04-29T10:35:47;76871.47;;;-142.75;86.61
41632;BME280;37452;51.938;4.624;2023-04-29T10:38:21;76895.09;;;-142.75;85.07
41632;BME280;37452;51.938;4.624;2023-04-29T10:40:48;76914.78;;;-142.75;86.38
41632;BME280;37452;51.938;4.624;2023-04-29T10:43:14;76893.13;;;-142.75;85.59
41632;BME280;37452;51.938;4.624;2023-04-29T10:45:40;76887.22;;;-142.75;85.04
41632;BME280;37452;51.938;4.624;2023-04-29T10:48:09;76924.63;;;-142.75;85.96
41632;BME280;37452;51.938;4.624;2023-04-29T10:50:38;76867.53;;;-142.75;90.98
41632;BME280;37452;51.938;4.624;2023-04-29T10:53:06;76806.50;;;-142.75;86.96
41632;BME280;37452;51.938;4.624;2023-04-29T10:55:34;76822.25;;;-142.75;82.75
41632;BME280;37452;51.938;4.624;2023-04-29T10:58:00;76723.84;;;-142.75;81.45
41632;BME280;37452;51.938;4.624;2023-04-29T11:00:27;76717.94;;;-142.75;77.77
41632;BME280;37452;51.938;4.624;2023-04-29T11:02:53;76652.97;;;-142.75;78.52
41632;BME280;37452;51.938;4.624;2023-04-29T11:05:28;76704.16;;;-142.75;77.24
41632;BME280;37452;51.938;4.624;2023-04-29T11:10:36;76861.63;;;-142.75;80.33
41632;BME280;37452;51.938;4.624;2023-04-29T11:15:47;76877.38;;;-142.75;83.80
41632;BME280;37452;51.938;4.624;2023-04-29T11:18:12;76893.13;;;-142.75;83.05
41632;BME280;37452;51.938;4.624;2023-04-29T11:23:23;76806.50;;;-142.75;80.83
41632;BME280;37452;51.938;4.624;2023-04-29T11:25:48;76822.25;;;-142.75;82.39
41632;BME280;37452;51.938;4.624;2023-04-29T11:28:13;76794.69;;;-142.75;78.81
41632;BME280;37452;51.938;4.624;2023-04-29T11:30:39;76832.09;;;-142.75;78.23
41632;BME280;37452;51.938;4.624;2023-04-29T11:33:07;76871.47;;;-142.75;81.57
41632;BME280;37452;51.938;4.624;2023-04-29T11:35:32;76883.28;;;-142.75;81.29
41632;BME280;37452;51.938;4.624;2023-04-29T11:37:58;76877.38;;;-142.75;83.17
41632;BME280;37452;51.938;4.624;2023-04-29T11:40:23;76830.13;;;-142.75;78.95
41632;BME280;37452;51.938;4.624;2023-04-29T11:42:49;76784.88;;;-142.75;76.60
41632;BME280;37452;51.938;4.624;2023-04-29T11:45:18;76712.03;;;-142.75;76.97
41632;BME280;37452;51.938;4.624;2023-04-29T11:47:44;76656.91;;;-142.75;76.87
41632;BME280;37452;51.938;4.624;2023-04-29T11:50:10;76645.09;;;-142.75;74.41
41632;BME280;37452;51.938;4.624;2023-04-29T11:52:36;76692.34;;;-142.75;74.10
41632;BME280;37452;51.938;4.624;2023-04-29T11:55:05;76749.44;;;-142.75;76.46
41632;BME280;37452;51.938;4.624;2023-04-29T11:57:32;76700.22;;;-142.75;75.89
41632;BME280;37452;51.938;4.624;2023-04-29T11:59:58;76765.19;;;-142.75;76.18
41632;BME280;37452;51.938;4.624;2023-04-29T12:02:29;76782.91;;;-142.75;76.12
41632;BME280;37452;51.938;4.624;2023-04-29T12:04:55;76755.34;;;-142.75;74.17
41632;BME280;37452;51.938;4.624;2023-04-29T12:07:22;76780.94;;;-142.75;77.13
41632;BME280;37452;51.938;4.624;2023-04-29T12:09:47;76759.28;;;-142.75;78.58
41632;BME280;37452;51.938;4.624;2023-04-29T12:12:12;76708.09;;;-142.75;76.80
41632;BME280;37452;51.938;4.624;2023-04-29T12:14:38;76654.94;;;-142.75;74.70
41632;BME280;37452;51.938;4.624;2023-04-29T12:17:04;76645.09;;;-142.75;73.49
41632;BME280;37452;51.938;4.624;2023-04-29T12:19:30;76637.22;;;-142.75;71.79
41632;BME280;37452;51.938;4.624;2023-04-29T12:21:58;76568.31;;;-142.75;71.73
41632;BME280;37452;51.938;4.624;2023-04-29T12:24:23;76586.03;;;-142.75;74.70
41632;BME280;37452;51.938;4.624;2023-04-29T12:26:49;76621.47;;;-142.75;74.10
41632;BME280;37452;51.938;4.624;2023-04-29T12:29:14;76704.16;;;-142.75;71.77
41632;BME280;37452;51.938;4.624;2023-04-29T12:31:39;76662.81;;;-142.75;72.80
41632;BME280;37452;51.938;4.624;2023-04-29T12:34:06;76625.41;;;-142.75;69.19
41632;BME280;37452;51.938;4.624;2023-04-29T12:36:31;76595.88;;;-142.75;70.80
41632;BME280;37452;51.938;4.624;2023-04-29T12:38:57;76572.25;;;-142.75;67.70
41632;BME280;37452;51.938;4.624;2023-04-29T12:41:38;76607.69;;;-142.75;68.80
41632;BME280;37452;51.938;4.624;2023-04-29T12:44:04;76609.66;;;-142.75;75.22
41632;BME280;37452;51.938;4.624;2023-04-29T12:46:33;76570.28;;;-142.75;72.09
41632;BME280;37452;51.938;4.624;2023-04-29T12:49:01;76523.06;;;-142.75;68.89
41632;BME280;37452;51.938;4.624;2023-04-29T12:51:27;76530.91;;;-142.75;67.22
41632;BME280;37452;51.938;4.624;2023-04-29T12:53:52;76513.22;;;-142.75;68.79
41632;BME280;37452;51.938;4.624;2023-04-29T12:56:18;76521.09;;;-142.75;68.07
41632;BME280;37452;51.938;4.624;2023-04-29T12:58:43;76611.63;;;-142.75;66.28
41632;BME280;37452;51.938;4.624;2023-04-29T13:01:08;76603.75;;;-142.75;72.39